M I D A S
Marine Information and Data Acquisition System
Tripno 593 of the Zeeleeuw from 2003-09-18 06:17:58 to 2003-09-18 13:10:43
Back to CruiseResearch ActivitiesStationsMapUnderway DataData graphs

EquipmentUnitsComment
TimeDGPSUTC
LatitudeDGPSDM.mWGS84
LongitudeDGPSDM.mWGS84
HeadingGyrodeg 
SOGDGPSknotsSpeed over ground
COGDGPSdegCourse over ground
DepthEcho soundermeters200 kHz
Missing or incorrect values are displayed as -999
Navigation data collected by the RV Zeeleeuw from 2003-09-18 06:17:58 to 2003-09-18 13:10:43
                                                                                    Next 1000 lines
Time Latitude Longitude Heading SOG COG Depth
2003-09-18 06:18:06 51°13.71 2°55.76 328.7 4.7 324 14.8
2003-09-18 06:18:12 51°13.72 2°55.75 327.7 5.4 324 13.4
2003-09-18 06:18:16 51°13.72 2°55.75 327.5 5.8 323 12.6
2003-09-18 06:18:22 51°13.73 2°55.74 327.7 6.4 324 12.4
2003-09-18 06:18:26 51°13.74 2°55.73 327.7 6.7 322 12.4
2003-09-18 06:18:32 51°13.74 2°55.72 327.3 7.2 322 12.5
2003-09-18 06:18:36 51°13.75 2°55.71 327.1 7.5 322 12.5
2003-09-18 06:18:42 51°13.76 2°55.7 327.4 7.9 323 12.5
2003-09-18 06:18:46 51°13.77 2°55.69 328.7 8.2 323 12.7
2003-09-18 06:18:52 51°13.78 2°55.68 330.1 8.4 326 12.5
2003-09-18 06:18:56 51°13.79 2°55.67 331.6 8.7 328 12.8
2003-09-18 06:19:02 51°13.8 2°55.66 334.1 8.8 330 12.9
2003-09-18 06:19:06 51°13.81 2°55.65 335.5 8.9 332 12.9
2003-09-18 06:19:12 51°13.82 2°55.64 336.7 9.1 333 12.6
2003-09-18 06:19:14 51°13.83 2°55.63 337.9 9.3 334 12.6
2003-09-18 06:19:22 51°13.85 2°55.62 339.1 9.4 335 12.2
2003-09-18 06:19:26 51°13.86 2°55.61 340.3 9.5 336 12.4
2003-09-18 06:19:32 51°13.87 2°55.6 340.6 9.6 336 12.5
2003-09-18 06:19:36 51°13.88 2°55.59 340.7 9.6 336 12.6
2003-09-18 06:19:42 51°13.9 2°55.58 341.1 9.7 336 12.7
2003-09-18 06:19:46 51°13.91 2°55.58 341.1 9.7 336 12.8
2003-09-18 06:19:52 51°13.92 2°55.57 340.8 9.4 335 12.7
2003-09-18 06:19:56 51°13.93 2°55.56 340.5 9.3 335 12.7
2003-09-18 06:20:02 51°13.94 2°55.55 340.5 9 335 12.8
2003-09-18 06:20:06 51°13.95 2°55.54 340.6 8.9 335 12.8
2003-09-18 06:20:12 51°13.97 2°55.53 340.2 8.7 335 12.7
2003-09-18 06:20:16 51°13.97 2°55.53 339.9 8.7 335 12.6
2003-09-18 06:20:22 51°13.99 2°55.52 340 8.5 335 12.5
2003-09-18 06:20:26 51°14 2°55.51 339.8 8.4 335 12.5
2003-09-18 06:20:32 51°14.01 2°55.5 339.6 8.3 334 12.3
2003-09-18 06:20:36 51°14.02 2°55.5 339.5 8.3 334 12.3
2003-09-18 06:20:42 51°14.03 2°55.49 339.6 8.2 335 12.3
2003-09-18 06:20:46 51°14.04 2°55.48 339.6 8.2 334 12.4
2003-09-18 06:20:52 51°14.05 2°55.47 339.4 8.1 334 12.4
2003-09-18 06:20:56 51°14.06 2°55.46 339.5 8.1 334 12.2
2003-09-18 06:21:02 51°14.07 2°55.45 340.1 8.2 335 12.2
2003-09-18 06:21:06 51°14.08 2°55.45 340.4 8.3 335 12.1
2003-09-18 06:21:12 51°14.09 2°55.44 340.4 8.7 335 12.2
2003-09-18 06:21:16 51°14.1 2°55.43 339.8 9 335 12.1
2003-09-18 06:21:22 51°14.11 2°55.42 339.5 9.4 333 12.1
2003-09-18 06:21:26 51°14.12 2°55.41 339.6 9.6 334 12.2
2003-09-18 06:21:32 51°14.14 2°55.4 339.6 9.9 333 12.4
2003-09-18 06:21:36 51°14.15 2°55.39 339.2 10 333 12.6
2003-09-18 06:21:42 51°14.16 2°55.38 338.6 10.2 332 12.5
2003-09-18 06:21:46 51°14.17 2°55.37 337.7 10.3 331 12.6
2003-09-18 06:21:50 51°14.18 2°55.36 336.7 10.5 329 12.7
2003-09-18 06:21:56 51°14.2 2°55.35 335.1 10.5 328 12.7
2003-09-18 06:22:02 51°14.21 2°55.33 333.1 10.6 326 12.6
2003-09-18 06:22:06 51°14.22 2°55.32 330.9 10.7 324 12.7
2003-09-18 06:22:12 51°14.24 2°55.3 328.4 10.7 322 12.7
2003-09-18 06:22:16 51°14.25 2°55.29 326.5 10.8 320 12.8
2003-09-18 06:22:22 51°14.26 2°55.27 324 10.8 317 13.3
2003-09-18 06:22:26 51°14.27 2°55.26 322.3 10.9 316 12.9
2003-09-18 06:22:32 51°14.28 2°55.24 320.6 10.9 314 13
2003-09-18 06:22:36 51°14.29 2°55.22 318.6 10.9 312 13
2003-09-18 06:22:42 51°14.3 2°55.2 316.4 11 310 12.9
2003-09-18 06:22:46 51°14.31 2°55.19 314.5 11 309 12.9
2003-09-18 06:22:52 51°14.32 2°55.16 313.6 11 308 12.9
2003-09-18 06:22:56 51°14.33 2°55.15 313.5 11 309 12.8
2003-09-18 06:23:02 51°14.34 2°55.12 313.9 11 309 12.9
2003-09-18 06:23:06 51°14.35 2°55.11 314.9 11 310 13
2003-09-18 06:23:12 51°14.36 2°55.09 316 11.1 311 12.6
2003-09-18 06:23:16 51°14.37 2°55.07 316.9 11.1 312 12.7
2003-09-18 06:23:22 51°14.38 2°55.05 318.2 11 314 12.7
2003-09-18 06:23:26 51°14.39 2°55.04 320.7 11.1 316 12.6
2003-09-18 06:23:32 51°14.4 2°55.02 324.3 11 320 12.8
2003-09-18 06:23:36 51°14.41 2°55.01 326.3 11.1 322 12.4
2003-09-18 06:23:42 51°14.43 2°54.99 327.5 11.2 323 12.1
2003-09-18 06:23:46 51°14.44 2°54.98 328.9 11.3 325 11.8
2003-09-18 06:23:52 51°14.45 2°54.96 330.1 11.4 326 11.8
2003-09-18 06:23:56 51°14.46 2°54.95 330.5 11.5 326 11.8
2003-09-18 06:24:02 51°14.48 2°54.93 330.6 11.6 327 11.6
2003-09-18 06:24:06 51°14.49 2°54.92 330.7 11.6 327 11.4
2003-09-18 06:24:12 51°14.51 2°54.91 330.3 11.7 327 11.5
2003-09-18 06:24:16 51°14.52 2°54.89 330.2 11.8 326 11.4
2003-09-18 06:24:22 51°14.53 2°54.88 329.9 11.8 327 11.4
2003-09-18 06:24:26 51°14.54 2°54.87 330.2 11.8 328 11.4
2003-09-18 06:24:32 51°14.56 2°54.85 330.2 12 328 11.4
2003-09-18 06:24:36 51°14.57 2°54.84 330.4 12.2 328 11.4
2003-09-18 06:24:42 51°14.59 2°54.82 330.3 12.5 328 11.5
2003-09-18 06:24:46 51°14.6 2°54.81 330.1 12.5 328 11.3
2003-09-18 06:24:52 51°14.62 2°54.79 329.5 12.6 327 11.2
2003-09-18 06:24:56 51°14.63 2°54.78 329 12.6 326 11.2
2003-09-18 06:25:02 51°14.65 2°54.76 328.4 12.8 326 11.2
2003-09-18 06:25:06 51°14.66 2°54.74 327.8 12.9 325 11.3
2003-09-18 06:25:12 51°14.68 2°54.73 327.7 13 326 11.2
2003-09-18 06:25:16 51°14.69 2°54.71 327.8 13.1 326 11.2
2003-09-18 06:25:22 51°14.71 2°54.69 327.9 13.2 326 11.2
2003-09-18 06:25:26 51°14.72 2°54.68 328 13.2 325 11.2
2003-09-18 06:25:30 51°14.73 2°54.67 327.4 13.4 324 11.2
2003-09-18 06:25:36 51°14.75 2°54.64 327.3 13.5 324 11.2
2003-09-18 06:25:42 51°14.77 2°54.62 327.8 13.6 325 11.2
2003-09-18 06:25:46 51°14.78 2°54.61 328.3 13.7 326 11.2
2003-09-18 06:25:52 51°14.8 2°54.59 328.8 13.7 326 11.2
2003-09-18 06:25:56 51°14.81 2°54.58 328.9 13.7 325 11.2
2003-09-18 06:26:02 51°14.83 2°54.56 328.6 13.7 325 11
2003-09-18 06:26:06 51°14.85 2°54.54 329 13.8 326 11
2003-09-18 06:26:12 51°14.86 2°54.52 330.2 13.8 328 10.9
2003-09-18 06:26:16 51°14.88 2°54.51 330.8 13.8 328 10.9
2003-09-18 06:26:22 51°14.9 2°54.49 331.3 13.8 329 10.9
2003-09-18 06:26:26 51°14.91 2°54.48 331.7 13.9 329 10.7
2003-09-18 06:26:32 51°14.93 2°54.46 332.3 13.9 329 10.6
2003-09-18 06:26:36 51°14.94 2°54.45 332.3 13.9 329 10.4
2003-09-18 06:26:42 51°14.96 2°54.43 332.4 13.8 329 10.3
2003-09-18 06:26:46 51°14.98 2°54.42 332.1 13.8 329 10.2
2003-09-18 06:26:52 51°15 2°54.4 331.8 13.9 329 10.2
2003-09-18 06:26:56 51°15.01 2°54.38 331.6 13.8 329 10.2
2003-09-18 06:27:02 51°15.03 2°54.36 330.9 13.8 327 10.3
2003-09-18 06:27:06 51°15.04 2°54.35 330.2 13.8 326 10.2
2003-09-18 06:27:12 51°15.06 2°54.33 329.6 13.8 326 10.3
2003-09-18 06:27:16 51°15.07 2°54.32 329.5 13.8 326 10.2
2003-09-18 06:27:22 51°15.09 2°54.3 329.5 13.8 326 10.3
2003-09-18 06:27:26 51°15.1 2°54.28 329.7 13.8 326 10.3
2003-09-18 06:27:32 51°15.12 2°54.26 330.2 13.9 327 10.3
2003-09-18 06:27:36 51°15.14 2°54.25 330.7 13.9 328 10.5
2003-09-18 06:27:42 51°15.16 2°54.23 331.3 13.9 328 10.5
2003-09-18 06:27:46 51°15.17 2°54.22 331.6 14 328 10.6
2003-09-18 06:27:52 51°15.19 2°54.2 331.8 14 328 10.6
2003-09-18 06:27:56 51°15.2 2°54.19 331.9 14 329 10.7
2003-09-18 06:28:02 51°15.22 2°54.17 332 14 329 10.7
2003-09-18 06:28:06 51°15.24 2°54.15 332 14 329 10.8
2003-09-18 06:28:12 51°15.26 2°54.13 331.7 14 328 10.8
2003-09-18 06:28:16 51°15.27 2°54.12 332.4 13.9 329 10.9
2003-09-18 06:28:22 51°15.29 2°54.1 333.1 14 330 11
2003-09-18 06:28:26 51°15.3 2°54.09 334.4 14 332 11
2003-09-18 06:28:32 51°15.32 2°54.08 336.3 14.1 334 11.1
2003-09-18 06:28:36 51°15.34 2°54.07 337.9 14.1 335 11.1
2003-09-18 06:28:42 51°15.36 2°54.05 338.9 14.1 336 11.2
2003-09-18 06:28:46 51°15.37 2°54.04 339.5 14.1 336 11.3
2003-09-18 06:28:52 51°15.4 2°54.03 339.8 14.1 337 11.3
2003-09-18 06:28:56 51°15.41 2°54.02 340.3 14.1 337 11.4
2003-09-18 06:29:02 51°15.43 2°54 340.3 14.1 337 11.5
2003-09-18 06:29:06 51°15.45 2°53.99 340.1 14.1 337 11.6
2003-09-18 06:29:12 51°15.47 2°53.98 339.7 14.1 337 11.6
2003-09-18 06:29:16 51°15.48 2°53.97 339.3 14.1 336 11.6
2003-09-18 06:29:22 51°15.5 2°53.95 338.4 14.1 335 11.7
2003-09-18 06:29:26 51°15.52 2°53.94 338 14.1 335 11.8
2003-09-18 06:29:32 51°15.54 2°53.93 337.5 14 334 11.8
2003-09-18 06:29:36 51°15.55 2°53.91 337.2 14 334 11.9
2003-09-18 06:29:42 51°15.57 2°53.9 337.2 14.1 334 12
2003-09-18 06:29:46 51°15.59 2°53.89 337.6 14 335 12.1
2003-09-18 06:29:52 51°15.61 2°53.87 338 14.1 335 12.2
2003-09-18 06:29:56 51°15.62 2°53.86 338 14.1 335 12.2
2003-09-18 06:30:02 51°15.64 2°53.85 338 14.1 335 12.3
2003-09-18 06:30:06 51°15.66 2°53.83 337.6 14 335 12.5
2003-09-18 06:30:12 51°15.68 2°53.82 336.9 14 333 12.6
2003-09-18 06:30:16 51°15.69 2°53.81 336.4 14 333 12.6
2003-09-18 06:30:22 51°15.71 2°53.79 335.8 14 333 12.6
2003-09-18 06:30:26 51°15.73 2°53.78 335.7 14 333 12.7
2003-09-18 06:30:32 51°15.75 2°53.76 335.8 14 333 12.7
2003-09-18 06:30:36 51°15.76 2°53.75 335.8 14 333 12.8
2003-09-18 06:30:42 51°15.78 2°53.73 336 14 333 12.9
2003-09-18 06:30:46 51°15.8 2°53.72 336 13.9 333 13
2003-09-18 06:30:52 51°15.82 2°53.71 335.9 13.9 333 13
2003-09-18 06:30:56 51°15.83 2°53.69 335.7 14 333 12.9
2003-09-18 06:31:02 51°15.85 2°53.68 335.5 14 333 12.9
2003-09-18 06:31:06 51°15.87 2°53.67 335.5 14 333 13
2003-09-18 06:31:12 51°15.89 2°53.65 335.4 14 333 13.1
2003-09-18 06:31:16 51°15.9 2°53.64 336 14 334 13.2
2003-09-18 06:31:22 51°15.92 2°53.62 336.1 13.9 333 13.2
2003-09-18 06:31:26 51°15.94 2°53.61 336 14 333 13.2
2003-09-18 06:31:32 51°15.96 2°53.59 335.7 13.9 333 13.3
2003-09-18 06:31:36 51°15.97 2°53.58 335.7 14 333 13.3
2003-09-18 06:31:42 51°15.99 2°53.57 335.8 14 333 13.4
2003-09-18 06:31:46 51°16 2°53.55 336 14 334 13.4
2003-09-18 06:31:52 51°16.03 2°53.54 336.2 13.9 333 13.5
2003-09-18 06:31:56 51°16.04 2°53.53 336.1 13.9 334 13.5
2003-09-18 06:32:02 51°16.06 2°53.51 336.3 13.9 334 13.5
2003-09-18 06:32:06 51°16.07 2°53.5 336.3 13.9 334 13.5
2003-09-18 06:32:12 51°16.09 2°53.48 336.4 13.9 334 13.6
2003-09-18 06:32:16 51°16.11 2°53.47 336.4 13.9 333 13.7
2003-09-18 06:32:22 51°16.13 2°53.46 336.2 13.9 334 13.7
2003-09-18 06:32:26 51°16.14 2°53.44 336.1 13.9 333 13.6
2003-09-18 06:32:32 51°16.16 2°53.43 336 13.9 333 13.7
2003-09-18 06:32:36 51°16.18 2°53.42 335.9 14 333 13.6
2003-09-18 06:32:42 51°16.2 2°53.4 335.9 14 334 13.7
2003-09-18 06:32:46 51°16.21 2°53.39 336 14 333 13.7
2003-09-18 06:32:52 51°16.23 2°53.37 336.3 14 334 13.8
2003-09-18 06:32:56 51°16.25 2°53.36 337.2 14 335 13.9
2003-09-18 06:33:02 51°16.27 2°53.35 337.9 14 336 13.9
2003-09-18 06:33:06 51°16.28 2°53.34 338.2 14 335 14
2003-09-18 06:33:12 51°16.3 2°53.32 338.4 14 336 13.9
2003-09-18 06:33:16 51°16.32 2°53.31 338.5 14 336 13.9
2003-09-18 06:33:22 51°16.34 2°53.3 338.6 14 336 13.9
2003-09-18 06:33:26 51°16.35 2°53.29 338.9 14.1 336 14
2003-09-18 06:33:32 51°16.38 2°53.27 339 14 337 14
2003-09-18 06:33:36 51°16.39 2°53.26 339 14 336 14
2003-09-18 06:33:42 51°16.41 2°53.25 338.9 14 336 13.9
2003-09-18 06:33:46 51°16.42 2°53.24 338.8 14 336 14
2003-09-18 06:33:52 51°16.45 2°53.22 338.4 14.1 336 14
2003-09-18 06:33:56 51°16.46 2°53.21 338.3 14.1 336 13.9
2003-09-18 06:34:02 51°16.48 2°53.2 338.2 14 335 13.8
2003-09-18 06:34:06 51°16.5 2°53.19 338 14.1 336 13.8
2003-09-18 06:34:12 51°16.52 2°53.17 338 14 336 13.7
2003-09-18 06:34:16 51°16.53 2°53.16 338.2 14 336 13.7
2003-09-18 06:34:22 51°16.55 2°53.15 338.2 14.1 336 13.6
2003-09-18 06:34:26 51°16.57 2°53.13 338.1 14 336 13.5
2003-09-18 06:34:32 51°16.59 2°53.12 338.1 14 336 13.4
2003-09-18 06:34:36 51°16.6 2°53.11 338 14.1 335 13.4
2003-09-18 06:34:42 51°16.62 2°53.09 337.9 14.1 335 13.3
2003-09-18 06:34:46 51°16.64 2°53.08 337.9 14 335 13.1
2003-09-18 06:34:52 51°16.66 2°53.07 337.9 14 335 13.1
2003-09-18 06:34:56 51°16.67 2°53.06 337.9 14 335 13
2003-09-18 06:35:02 51°16.69 2°53.04 337.9 14 335 12.8
2003-09-18 06:35:06 51°16.71 2°53.03 338 14 335 13
2003-09-18 06:35:12 51°16.73 2°53.02 338 14 335 12.7
2003-09-18 06:35:16 51°16.74 2°53.01 337.9 14 335 12.6
2003-09-18 06:35:22 51°16.76 2°52.99 337.9 14 335 12.4
2003-09-18 06:35:26 51°16.78 2°52.98 337.7 14 335 12.1
2003-09-18 06:35:32 51°16.8 2°52.96 337.9 13.9 335 11.7
2003-09-18 06:35:36 51°16.81 2°52.95 338.2 13.9 336 11.1
2003-09-18 06:35:42 51°16.83 2°52.94 338.6 13.9 336 10.7
2003-09-18 06:35:46 51°16.85 2°52.93 338.9 13.8 336 10.2
2003-09-18 06:35:52 51°16.87 2°52.91 339 13.8 336 10.4
2003-09-18 06:35:56 51°16.88 2°52.9 338.9 13.8 335 10.4
2003-09-18 06:36:02 51°16.9 2°52.89 338.5 13.8 336 10.4
2003-09-18 06:36:06 51°16.92 2°52.88 338.1 13.8 334 10.6
2003-09-18 06:36:12 51°16.94 2°52.86 337.7 13.9 335 10.8
2003-09-18 06:36:16 51°16.95 2°52.85 337.4 14 334 10.8
2003-09-18 06:36:22 51°16.97 2°52.84 337.5 14.1 334 11.1
2003-09-18 06:36:26 51°16.99 2°52.82 337.5 14.1 335 11.2
2003-09-18 06:36:32 51°17.01 2°52.81 338.2 14.1 335 11.3
2003-09-18 06:36:36 51°17.02 2°52.8 338.2 14.1 335 11.3
2003-09-18 06:36:42 51°17.05 2°52.78 338.3 14.1 335 11.5
2003-09-18 06:36:46 51°17.06 2°52.77 338.3 14.2 336 11.4
2003-09-18 06:36:52 51°17.08 2°52.76 339.3 14.2 336 11.8
2003-09-18 06:36:56 51°17.1 2°52.75 340.4 14.2 337 11.8
2003-09-18 06:37:02 51°17.12 2°52.73 340.8 14.2 338 11.5
2003-09-18 06:37:06 51°17.13 2°52.73 341.8 14.2 339 11.6
2003-09-18 06:37:12 51°17.16 2°52.71 344.4 14.1 343 11.3
2003-09-18 06:37:16 51°17.17 2°52.71 347.2 14.1 345 11.3
2003-09-18 06:37:22 51°17.19 2°52.7 351.8 14.1 351 10.9
2003-09-18 06:37:26 51°17.21 2°52.7 355.6 14.1 353 11.2
2003-09-18 06:37:32 51°17.23 2°52.7 359 14.1 357 11.3
2003-09-18 06:37:36 51°17.25 2°52.7 1.2 14.1 358 11.2
2003-09-18 06:37:42 51°17.27 2°52.7 2.1 14.2 358 11.2
2003-09-18 06:37:46 51°17.29 2°52.7 2.7 14.2 358 11.4
2003-09-18 06:37:52 51°17.31 2°52.69 2.9 14.3 359 11.3
2003-09-18 06:37:56 51°17.33 2°52.69 3.2 14.3 359 11.3
2003-09-18 06:38:02 51°17.35 2°52.69 3.1 14.3 359 11.3
2003-09-18 06:38:06 51°17.37 2°52.69 2.4 14.2 358 11.5
2003-09-18 06:38:12 51°17.39 2°52.69 2.1 14.3 357 11.5
2003-09-18 06:38:16 51°17.41 2°52.69 1.3 14.2 357 11.4
2003-09-18 06:38:22 51°17.43 2°52.69 0.7 14.3 357 11.6
2003-09-18 06:38:26 51°17.45 2°52.68 0.4 14.3 356 11.7
2003-09-18 06:38:32 51°17.47 2°52.68 0.2 14.3 356 11.4
2003-09-18 06:38:36 51°17.49 2°52.68 0.2 14.3 356 11.8
2003-09-18 06:38:42 51°17.51 2°52.68 0.6 14.3 357 11.6
2003-09-18 06:38:46 51°17.52 2°52.68 0.9 14.3 357 11.6
2003-09-18 06:38:52 51°17.55 2°52.68 1.3 14.3 357 11.8
2003-09-18 06:38:56 51°17.56 2°52.67 1.3 14.3 357 11.9
2003-09-18 06:39:02 51°17.59 2°52.67 1 14.3 356 11.6
2003-09-18 06:39:06 51°17.6 2°52.67 0.7 14.3 356 11.7
2003-09-18 06:39:12 51°17.63 2°52.67 0.1 14.3 356 11.7
2003-09-18 06:39:16 51°17.64 2°52.67   14.3 356 11.8
2003-09-18 06:39:22 51°17.67 2°52.66   14.3 356 11.9
2003-09-18 06:39:26 51°17.68 2°52.66 0.1 14.3 356 11.8
2003-09-18 06:39:32 51°17.71 2°52.66 0.5 14.2 357 11.8
2003-09-18 06:39:36 51°17.72 2°52.66 0.9 14.3 357 11.8
2003-09-18 06:39:42 51°17.75 2°52.66 1.3 14.3 357 11.8
2003-09-18 06:39:46 51°17.76 2°52.65 1.4 14.3 357 11.8
2003-09-18 06:39:52 51°17.79 2°52.65 1.5 14.3 357 11.9
2003-09-18 06:39:56 51°17.8 2°52.65 1.3 14.3 357 11.9
2003-09-18 06:40:02 51°17.83 2°52.65 0.9 14.2 356 11.7
2003-09-18 06:40:06 51°17.84 2°52.65 0.5 14.3 356 11.9
2003-09-18 06:40:12 51°17.87 2°52.64 359.7 14.4 355 11.8
2003-09-18 06:40:16 51°17.88 2°52.64 359.6 14.4 356 11.9
2003-09-18 06:40:22 51°17.9 2°52.64 359.4 14.3 355 11.8
2003-09-18 06:40:26 51°17.92 2°52.64 359.2 14.3 355 11.7
2003-09-18 06:40:32 51°17.94 2°52.63 359.1 14.3 355 12
2003-09-18 06:40:36 51°17.96 2°52.63 359 14.3 355 11.9
2003-09-18 06:40:42 51°17.98 2°52.63 358.9 14.4 356 12
2003-09-18 06:40:46 51°18 2°52.63 359.1 14.4 355 12.1
2003-09-18 06:40:52 51°18.02 2°52.62 358.9 14.4 355 12.1
2003-09-18 06:40:56 51°18.04 2°52.62 358.9 14.3 355 12.2
2003-09-18 06:41:02 51°18.06 2°52.62 358.8 14.4 355 12
2003-09-18 06:41:06 51°18.08 2°52.61 358.8 14.4 355 12.1
2003-09-18 06:41:12 51°18.1 2°52.61 359.2 14.4 356 12.2
2003-09-18 06:41:16 51°18.12 2°52.61 359.9 14.3 356 12.3
2003-09-18 06:41:22 51°18.14 2°52.61   14.4 356 12.2
2003-09-18 06:41:26 51°18.16 2°52.61   14.3 356 12.3
2003-09-18 06:41:32 51°18.18 2°52.6   14.4 356 12.4
2003-09-18 06:41:36 51°18.2 2°52.6 0.7 14.4 357 12.3
2003-09-18 06:41:42 51°18.22 2°52.6 3.4 14.4 2 12.4
2003-09-18 06:41:46 51°18.24 2°52.61 6.4 14.3 3 12.4
2003-09-18 06:41:52 51°18.26 2°52.61 9.6 14.4 7 12.3
2003-09-18 06:41:56 51°18.28 2°52.61 11.6 14.4 8 12.4
2003-09-18 06:42:02 51°18.3 2°52.62 15.1 14.3 13 12.5
2003-09-18 06:42:06 51°18.32 2°52.63 19.8 14.3 17 12.5
2003-09-18 06:42:12 51°18.34 2°52.65 23.9 14.4 21 12.5
2003-09-18 06:42:16 51°18.35 2°52.66 26.5 14.4 23 12.6
2003-09-18 06:42:22 51°18.37 2°52.67 29.4 14.3 26 12.6
2003-09-18 06:42:26 51°18.39 2°52.68 31.5 14.3 27 12.7
2003-09-18 06:42:32 51°18.41 2°52.7 33.4 14.4 29 12.7
2003-09-18 06:42:36 51°18.42 2°52.72 34.1 14.4 30 12.7
2003-09-18 06:42:42 51°18.44 2°52.74 37.2 14.4 35 12.7
2003-09-18 06:42:46 51°18.45 2°52.75 41.3 14.3 40 12.8
2003-09-18 06:42:52 51°18.47 2°52.78 46 14.3 43 12.8
2003-09-18 06:42:56 51°18.48 2°52.8 49.9 14.3 47 12.8
2003-09-18 06:43:02 51°18.5 2°52.83 54.8 14.2 52 12.7
2003-09-18 06:43:06 51°18.51 2°52.85 58.7 14.2 55 12.8
2003-09-18 06:43:12 51°18.52 2°52.88 63.3 14.2 59 12.8
2003-09-18 06:43:16 51°18.52 2°52.9 66.2 14.1 62 12.9
2003-09-18 06:43:22 51°18.53 2°52.94 69.6 14.1 65 12.8
2003-09-18 06:43:26 51°18.54 2°52.96 71.8 14.2 66 12.9
2003-09-18 06:43:32 51°18.55 2°53 73.1 14.2 68 12.8
2003-09-18 06:43:36 51°18.56 2°53.02 74.4 14.2 68 12.9
2003-09-18 06:43:42 51°18.56 2°53.05 75.3 14.2 69 12.8
2003-09-18 06:43:46 51°18.57 2°53.08 75.4 14.3 69 12.8
2003-09-18 06:43:52 51°18.58 2°53.11 75.4 14.3 69 12.8
2003-09-18 06:43:56 51°18.58 2°53.14 74.7 14.2 68 12.9
2003-09-18 06:44:02 51°18.59 2°53.17 74.6 14.3 68 12.8
2003-09-18 06:44:06 51°18.6 2°53.2 74.2 14.4 68 12.9
2003-09-18 06:44:12 51°18.61 2°53.23 73.8 14.4 67 13
2003-09-18 06:44:16 51°18.62 2°53.25 73.6 14.3 67 12.9
2003-09-18 06:44:22 51°18.63 2°53.29 72.5 14.4 66 12.9
2003-09-18 06:44:26 51°18.63 2°53.31 71.8 14.4 65 12.9
2003-09-18 06:44:32 51°18.64 2°53.35 71.4 14.3 65 12.9
2003-09-18 06:44:36 51°18.65 2°53.37 71.4 14.3 65 12.9
2003-09-18 06:44:42 51°18.66 2°53.4 71.5 14.3 65 12.9
2003-09-18 06:44:46 51°18.67 2°53.43 71.3 14.3 65 12.9
2003-09-18 06:44:52 51°18.68 2°53.46 71.1 14.3 65 12.9
2003-09-18 06:44:56 51°18.68 2°53.48 71.8 14.4 65 12.9
2003-09-18 06:45:02 51°18.69 2°53.52 71.8 14.4 65 12.9
2003-09-18 06:45:06 51°18.7 2°53.54 71.7 14.3 65 12.9
2003-09-18 06:45:12 51°18.71 2°53.58 71.6 14.3 65 12.9
2003-09-18 06:45:16 51°18.72 2°53.6 71.1 14.3 65 12.9
2003-09-18 06:45:22 51°18.73 2°53.63 70.7 14.3 64 13
2003-09-18 06:45:26 51°18.73 2°53.66 70.4 14.3 64 12.8
2003-09-18 06:45:30 51°18.74 2°53.68 70 14.4 63 12.9
2003-09-18 06:45:36 51°18.75 2°53.71 69.7 14.4 63 12.9
2003-09-18 06:45:42 51°18.76 2°53.75 69.6 14.3 63 13
2003-09-18 06:45:46 51°18.77 2°53.77 69.8 14.3 64 13
2003-09-18 06:45:52 51°18.78 2°53.8 70.7 14.3 65 12.9
2003-09-18 06:45:56 51°18.79 2°53.83 71.3 14.3 65 12.9
2003-09-18 06:46:02 51°18.8 2°53.86 71.9 14.2 66 12.9
2003-09-18 06:46:06 51°18.8 2°53.88 72.5 14.2 66 12.9
2003-09-18 06:46:12 51°18.81 2°53.92 72.7 14.2 66 12.9
2003-09-18 06:46:16 51°18.82 2°53.94 72.2 14.2 65 13
2003-09-18 06:46:22 51°18.83 2°53.98 71.8 14.2 65 12.9
2003-09-18 06:46:26 51°18.83 2°54 71.4 14.2 65 12.9
2003-09-18 06:46:32 51°18.85 2°54.03 70.9 14.2 64 12.9
2003-09-18 06:46:36 51°18.85 2°54.06 70.5 14.3 64 12.9
2003-09-18 06:46:42 51°18.86 2°54.09 70.4 14.3 64 13
2003-09-18 06:46:46 51°18.87 2°54.11 70.1 14.2 63 12.9
2003-09-18 06:46:52 51°18.88 2°54.15 69.8 14.3 63 12.9
2003-09-18 06:46:56 51°18.89 2°54.17 69.4 14.2 63 12.9
2003-09-18 06:47:02 51°18.9 2°54.2 69.3 14.2 63 12.9
2003-09-18 06:47:06 51°18.91 2°54.22 69.6 14.2 64 13
2003-09-18 06:47:12 51°18.92 2°54.26 70.4 14.2 64 13
2003-09-18 06:47:16 51°18.92 2°54.28 71.1 14.3 65 12.9
2003-09-18 06:47:22 51°18.93 2°54.32 71.8 14.2 66 12.9
2003-09-18 06:47:26 51°18.94 2°54.34 72.2 14.2 66 13
2003-09-18 06:47:32 51°18.95 2°54.37 72.2 14.2 65 12.9
2003-09-18 06:47:36 51°18.96 2°54.4 71.9 14.2 65 12.8
2003-09-18 06:47:42 51°18.97 2°54.43 71.1 14.3 64 12.9
2003-09-18 06:47:46 51°18.97 2°54.45 70.7 14.2 64 12.8
2003-09-18 06:47:52 51°18.98 2°54.49 70.6 14.2 63 12.9
2003-09-18 06:47:56 51°18.99 2°54.51 70.4 14.2 64 12.8
2003-09-18 06:48:02 51°19 2°54.54 70.4 14.2 64 12.7
2003-09-18 06:48:06 51°19.01 2°54.57 71.1 14.2 65 12.7
2003-09-18 06:48:12 51°19.02 2°54.6 71.4 14.3 65 12.6
2003-09-18 06:48:16 51°19.02 2°54.62 71.3 14.3 65 12.6
2003-09-18 06:48:22 51°19.03 2°54.66 71.2 14.3 65 12.7
2003-09-18 06:48:26 51°19.04 2°54.68 70.9 14.3 64 12.6
2003-09-18 06:48:32 51°19.05 2°54.71 70.7 14.3 64 12.6
2003-09-18 06:48:36 51°19.06 2°54.74 70.7 14.3 64 12.6
2003-09-18 06:48:42 51°19.07 2°54.77 70.8 14.3 64 12.6
2003-09-18 06:48:46 51°19.08 2°54.79 70.8 14.3 64 12.5
2003-09-18 06:48:52 51°19.09 2°54.83 70.8 14.3 64 12.6
2003-09-18 06:48:56 51°19.09 2°54.85 70.6 14.3 64 12.6
2003-09-18 06:49:02 51°19.1 2°54.89 69.9 14.3 63 12.6
2003-09-18 06:49:06 51°19.11 2°54.91 69.7 14.3 63 12.5
2003-09-18 06:49:12 51°19.12 2°54.94 70 14.3 64 12.6
2003-09-18 06:49:16 51°19.13 2°54.96 70.5 14.3 64 12.5
2003-09-18 06:49:22 51°19.14 2°55 70.6 14.3 64 12.5
2003-09-18 06:49:26 51°19.15 2°55.02 71 14.3 65 12.5
2003-09-18 06:49:32 51°19.16 2°55.06 71 14.3 64 12.6
2003-09-18 06:49:36 51°19.16 2°55.08 71.2 14.3 65 12.5
2003-09-18 06:49:42 51°19.17 2°55.11 71.5 14.3 64 12.5
2003-09-18 06:49:46 51°19.18 2°55.14 71.5 14.3 65 12.6
2003-09-18 06:49:52 51°19.19 2°55.17 71.4 14.2 64 12.5
2003-09-18 06:49:56 51°19.2 2°55.19 70.9 14.3 64 12.6
2003-09-18 06:50:02 51°19.21 2°55.23 70.5 14.3 64 12.5
2003-09-18 06:50:06 51°19.21 2°55.25 70.6 14.3 64 12.5
2003-09-18 06:50:12 51°19.22 2°55.28 71 14.3 65 12.5
2003-09-18 06:50:16 51°19.23 2°55.31 71.6 14.3 65 12.6
2003-09-18 06:50:22 51°19.24 2°55.34 71.9 14.3 65 12.6
2003-09-18 06:50:26 51°19.25 2°55.36 71.7 14.3 65 12.6
2003-09-18 06:50:32 51°19.26 2°55.4 71.3 14.3 64 12.6
2003-09-18 06:50:36 51°19.27 2°55.42 70.7 14.3 64 12.6
2003-09-18 06:50:42 51°19.28 2°55.46 70.4 14.3 63 12.6
2003-09-18 06:50:46 51°19.28 2°55.48 69.9 14.3 63 12.7
2003-09-18 06:50:52 51°19.29 2°55.51 69.4 14.3 63 12.7
2003-09-18 06:50:56 51°19.3 2°55.53 69.4 14.3 63 12.7
2003-09-18 06:51:02 51°19.31 2°55.57 69.7 14.4 63 12.8
2003-09-18 06:51:06 51°19.32 2°55.59 70.1 14.4 64 12.7
2003-09-18 06:51:12 51°19.33 2°55.63 70.2 14.4 64 12.7
2003-09-18 06:51:16 51°19.34 2°55.65 70.5 14.4 65 12.8
2003-09-18 06:51:22 51°19.35 2°55.68 70.9 14.4 64 12.8
2003-09-18 06:51:26 51°19.35 2°55.71 71.1 14.4 65 12.7
2003-09-18 06:51:32 51°19.36 2°55.74 71.2 14.4 64 12.8
2003-09-18 06:51:36 51°19.37 2°55.76 70.7 14.4 64 12.7
2003-09-18 06:51:42 51°19.38 2°55.8 70.3 14.4 64 12.9
2003-09-18 06:51:46 51°19.39 2°55.82 70.2 14.4 63 12.9
2003-09-18 06:51:52 51°19.4 2°55.85 70.4 14.4 64 12.8
2003-09-18 06:51:56 51°19.41 2°55.88 70.4 14.4 64 12.8
2003-09-18 06:52:02 51°19.42 2°55.91 70.7 14.3 64 12.9
2003-09-18 06:52:06 51°19.42 2°55.93 70.9 14.3 65 12.8
2003-09-18 06:52:12 51°19.43 2°55.97 71.1 14.3 64 12.8
2003-09-18 06:52:16 51°19.44 2°55.99 70.9 14.3 64 12.7
2003-09-18 06:52:22 51°19.45 2°56.03 70.7 14.3 63 12.7
2003-09-18 06:52:26 51°19.46 2°56.05 70.4 14.3 63 12.8
2003-09-18 06:52:32 51°19.47 2°56.08 70.3 14.2 63 12.8
2003-09-18 06:52:38 51°19.48 2°56.12 70.3 14.3 64 12.7
2003-09-18 06:52:42 51°19.49 2°56.14 70.4 14.4 63 12.7
2003-09-18 06:52:46 51°19.49 2°56.16 70.2 14.4 63 12.7
2003-09-18 06:52:52 51°19.51 2°56.2 69.7 14.3 62 12.7
2003-09-18 06:52:56 51°19.51 2°56.22 70.1 14.3 64 12.9
2003-09-18 06:53:02 51°19.52 2°56.25 70.3 14.3 63 12.8
2003-09-18 06:53:06 51°19.53 2°56.27 70.9 14.3 65 12.7
2003-09-18 06:53:12 51°19.54 2°56.31 71 14.3 64 12.8
2003-09-18 06:53:16 51°19.55 2°56.33 71.1 14.3 65 12.7
2003-09-18 06:53:22 51°19.56 2°56.37 71.1 14.3 64 12.7
2003-09-18 06:53:26 51°19.56 2°56.39 71.2 14.3 64 12.8
2003-09-18 06:53:32 51°19.57 2°56.42 70.9 14.3 64 12.7
2003-09-18 06:53:36 51°19.58 2°56.45 70.9 14.3 64 12.8
2003-09-18 06:53:42 51°19.59 2°56.48 71.1 14.4 65 12.7
2003-09-18 06:53:46 51°19.6 2°56.5 71.3 14.3 64 12.7
2003-09-18 06:53:52 51°19.61 2°56.54 71.3 14.4 64 12.7
2003-09-18 06:53:56 51°19.62 2°56.56 70.6 14.4 64 12.7
2003-09-18 06:54:02 51°19.63 2°56.59 70.4 14.3 64 12.7
2003-09-18 06:54:06 51°19.63 2°56.62 70.1 14.3 63 12.7
2003-09-18 06:54:12 51°19.64 2°56.65 69.8 14.3 64 12.6
2003-09-18 06:54:16 51°19.65 2°56.67 69.6 14.3 62 12.6
2003-09-18 06:54:22 51°19.66 2°56.71 68.9 14.3 62 12.7
2003-09-18 06:54:26 51°19.67 2°56.73 68.9 14.3 62 12.7
2003-09-18 06:54:32 51°19.68 2°56.76 69.1 14.3 63 12.6
2003-09-18 06:54:36 51°19.69 2°56.79 69.9 14.3 63 12.6
2003-09-18 06:54:42 51°19.7 2°56.82 70.4 14.3 64 12.6
2003-09-18 06:54:46 51°19.71 2°56.84 71.1 14.2 65 12.5
2003-09-18 06:54:52 51°19.72 2°56.88 71.3 14.3 65 12.6
2003-09-18 06:54:56 51°19.72 2°56.9 71.1 14.3 64 12.5
2003-09-18 06:55:02 51°19.73 2°56.93 70.9 14.3 64 12.5
2003-09-18 06:55:06 51°19.74 2°56.96 70.2 14.3 63 12.6
2003-09-18 06:55:12 51°19.75 2°56.99 69.5 14.3 62 12.6
2003-09-18 06:55:16 51°19.76 2°57.01 68.9 14.3 62 12.6
2003-09-18 06:55:22 51°19.77 2°57.05 69 14.3 63 12.5
2003-09-18 06:55:26 51°19.78 2°57.07 69.2 14.4 63 12.5
2003-09-18 06:55:32 51°19.79 2°57.1 69.6 14.3 63 12.6
2003-09-18 06:55:36 51°19.79 2°57.13 70.4 14.3 64 12.6
2003-09-18 06:55:42 51°19.8 2°57.16 70.6 14.3 63 12.5
2003-09-18 06:55:46 51°19.81 2°57.18 70.5 14.4 64 12.5
2003-09-18 06:55:52 51°19.82 2°57.22 70.2 14.3 63 12.5
2003-09-18 06:55:56 51°19.83 2°57.24 69.8 14.2 63 12.5
2003-09-18 06:56:02 51°19.84 2°57.27 70.1 14.3 63 12.5
2003-09-18 06:56:06 51°19.85 2°57.3 70.1 14.4 63 12.4
2003-09-18 06:56:12 51°19.86 2°57.33 70.2 14.4 63 12.6
2003-09-18 06:56:16 51°19.87 2°57.35 70.3 14.3 64 12.5
2003-09-18 06:56:22 51°19.88 2°57.39 71.1 14.3 64 12.5
2003-09-18 06:56:26 51°19.88 2°57.41 71.1 14.3 64 12.5
2003-09-18 06:56:32 51°19.89 2°57.44 70.9 14.3 64 12.5
2003-09-18 06:56:36 51°19.9 2°57.47 71.2 14.3 64 12.5
2003-09-18 06:56:42 51°19.91 2°57.5 71.4 14.3 65 12.4
2003-09-18 06:56:46 51°19.92 2°57.52 71.6 14.3 65 12.5
2003-09-18 06:56:52 51°19.93 2°57.56 71.4 14.3 65 12.5
2003-09-18 06:56:56 51°19.93 2°57.58 71.2 14.3 64 12.6
2003-09-18 06:57:02 51°19.94 2°57.62 71 14.3 65 12.5
2003-09-18 06:57:06 51°19.95 2°57.64 70.8 14.3 63 12.5
2003-09-18 06:57:12 51°19.96 2°57.67 70.4 14.3 64 12.5
2003-09-18 06:57:18 51°19.97 2°57.71 70.3 14.3 64 12.4
2003-09-18 06:57:22 51°19.98 2°57.73 70.4 14.3 64 12.5
2003-09-18 06:57:26 51°19.99 2°57.75 70.8 14.3 64 12.5
2003-09-18 06:57:32 51°20 2°57.79 71.1 14.2 65 12.4
2003-09-18 06:57:36 51°20 2°57.81 71.2 14.3 64 12.4
2003-09-18 06:57:42 51°20.01 2°57.84 71.2 14.3 64 12.4
2003-09-18 06:57:46 51°20.02 2°57.87 70.8 14.3 63 12.4
2003-09-18 06:57:52 51°20.03 2°57.9 70.4 14.2 64 12.4
2003-09-18 06:57:56 51°20.04 2°57.92 70.4 14.2 63 12.5
2003-09-18 06:58:02 51°20.05 2°57.96 70.3 14.3 63 12.4
2003-09-18 06:58:06 51°20.06 2°57.98 70.2 14.3 64 12.4
2003-09-18 06:58:12 51°20.07 2°58.01 70.1 14.2 63 12.5
2003-09-18 06:58:16 51°20.07 2°58.03 70.1 14.3 64 12.3
2003-09-18 06:58:22 51°20.08 2°58.07 70.2 14.2 64 12.4
2003-09-18 06:58:26 51°20.09 2°58.09 70.4 14.2 64 12.4
2003-09-18 06:58:32 51°20.1 2°58.13 70.4 14.2 64 12.4
2003-09-18 06:58:36 51°20.11 2°58.15 70.5 14.2 64 12.4
2003-09-18 06:58:42 51°20.12 2°58.18 70.7 14.2 65 12.4
2003-09-18 06:58:46 51°20.13 2°58.2 71.1 14.2 65 12.3
2003-09-18 06:58:52 51°20.14 2°58.24 71.1 14.2 64 12.3
2003-09-18 06:58:56 51°20.14 2°58.26 71.1 14.3 64 12.4
2003-09-18 06:59:02 51°20.15 2°58.3 70.3 14.3 63 12.4
2003-09-18 06:59:06 51°20.16 2°58.32 69.8 14.3 63 12.3
2003-09-18 06:59:12 51°20.17 2°58.35 69.6 14.3 63 12.4
2003-09-18 06:59:16 51°20.18 2°58.37 69.2 14.3 63 12.3
2003-09-18 06:59:22 51°20.19 2°58.41 69.4 14.3 63 12.3
2003-09-18 06:59:26 51°20.2 2°58.43 69.5 14.3 63 12.3
2003-09-18 06:59:32 51°20.21 2°58.46 69.7 14.3 63 12.4
2003-09-18 06:59:36 51°20.21 2°58.49 69.8 14.3 64 12.2
2003-09-18 06:59:42 51°20.22 2°58.52 70.3 14.2 64 12.3
2003-09-18 06:59:46 51°20.23 2°58.54 71.1 14.2 65 12.2
2003-09-18 06:59:52 51°20.24 2°58.58 71.8 14.3 65 12.2
2003-09-18 06:59:56 51°20.25 2°58.6 72.3 14.3 66 12.2
2003-09-18 07:00:02 51°20.26 2°58.64 72.7 14.2 67 12.3
2003-09-18 07:00:06 51°20.26 2°58.66 73.5 14.2 68 12.2
2003-09-18 07:00:12 51°20.27 2°58.7 74.3 14.3 69 12.3
2003-09-18 07:00:16 51°20.28 2°58.72 74.8 14.3 68 12.2
2003-09-18 07:00:22 51°20.29 2°58.75 75.1 14.3 69 12.1
2003-09-18 07:00:26 51°20.29 2°58.78 75.3 14.3 69 12.2
2003-09-18 07:00:32 51°20.3 2°58.81 75.1 14.2 69 12.1
2003-09-18 07:00:36 51°20.31 2°58.84 75.2 14.3 68 12.2
2003-09-18 07:00:42 51°20.31 2°58.87 74.8 14.3 69 12.2
2003-09-18 07:00:46 51°20.32 2°58.9 74.4 14.3 67 12.2
2003-09-18 07:00:52 51°20.33 2°58.93 74 14.2 68 12.2
2003-09-18 07:00:56 51°20.34 2°58.95 74 14.3 67 12.3
2003-09-18 07:01:02 51°20.34 2°58.99 74 14.2 69 12.2
2003-09-18 07:01:06 51°20.35 2°59.01 74.5 14.3 67 12.1
2003-09-18 07:01:12 51°20.36 2°59.05 74.7 14.3 69 12.2
2003-09-18 07:01:16 51°20.37 2°59.07 74.7 14.3 68 12.2
2003-09-18 07:01:22 51°20.37 2°59.11 74.8 14.3 69 12.2
2003-09-18 07:01:26 51°20.38 2°59.13 74.8 14.3 68 12.2
2003-09-18 07:01:32 51°20.39 2°59.16 74.8 14.3 68 12.1
2003-09-18 07:01:34 51°20.39 2°59.18 74.7 14.3 68 12.1
2003-09-18 07:01:42 51°20.4 2°59.22 74.2 14.2 68 12.1
2003-09-18 07:01:46 51°20.41 2°59.25 73.8 14.2 67 12
2003-09-18 07:01:52 51°20.42 2°59.28 73.3 14.3 67 12.1
2003-09-18 07:01:56 51°20.43 2°59.3 72.8 14.3 66 12
2003-09-18 07:02:02 51°20.43 2°59.34 72.9 14.3 67 12
2003-09-18 07:02:06 51°20.44 2°59.36 73.3 14.2 67 12.1
2003-09-18 07:02:12 51°20.45 2°59.4 74 14.2 68 12
2003-09-18 07:02:16 51°20.46 2°59.42 74 14.3 68 12
2003-09-18 07:02:22 51°20.46 2°59.46 74 14.2 68 12
2003-09-18 07:02:26 51°20.47 2°59.48 74.3 14.2 68 12
2003-09-18 07:02:32 51°20.48 2°59.51 74.8 14.3 68 12
2003-09-18 07:02:36 51°20.49 2°59.54 75 14.3 69 12
2003-09-18 07:02:42 51°20.49 2°59.57 75.2 14.3 69 12
2003-09-18 07:02:46 51°20.5 2°59.6 75.3 14.2 69 12
2003-09-18 07:02:52 51°20.51 2°59.63 75.2 14.3 68 12
2003-09-18 07:02:56 51°20.51 2°59.65 74.7 14.3 68 12
2003-09-18 07:03:02 51°20.52 2°59.69 74.1 14.3 68 12
2003-09-18 07:03:06 51°20.53 2°59.71 74 14.3 68 12
2003-09-18 07:03:12 51°20.54 2°59.75 73.8 14.3 68 11.9
2003-09-18 07:03:16 51°20.54 2°59.77 74.1 14.3 69 11.9
2003-09-18 07:03:22 51°20.55 2°59.81 74.7 14.4 68 12
2003-09-18 07:03:26 51°20.56 2°59.83 74.7 14.3 69 12
2003-09-18 07:03:32 51°20.57 2°59.87 75.1 14.3 69 12
2003-09-18 07:03:36 51°20.57 2°59.89 75.4 14.3 69 12
2003-09-18 07:03:42 51°20.58 2°59.92 75.3 14.3 69 12.1
2003-09-18 07:03:46 51°20.59 2°59.95 74.3 14.3 68 12.1
2003-09-18 07:03:52 51°20.6 2°59.98 74 14.3 67 12
2003-09-18 07:03:56 51°20.6 3°0.01 73.9 14.3 68 12
2003-09-18 07:04:02 51°20.61 3°0.04 73.6 14.4 67 12
2003-09-18 07:04:06 51°20.62 3°0.07 73.9 14.3 68 12
2003-09-18 07:04:12 51°20.63 3°0.1 74.7 14.3 69 12
2003-09-18 07:04:16 51°20.63 3°0.12 74.9 14.4 68 12.1
2003-09-18 07:04:22 51°20.64 3°0.16 75.1 14.3 69 12
2003-09-18 07:04:26 51°20.65 3°0.18 75.2 14.3 69 12
2003-09-18 07:04:32 51°20.66 3°0.22 75.2 14.3 69 12
2003-09-18 07:04:36 51°20.66 3°0.24 75.1 14.3 69 11.9
2003-09-18 07:04:42 51°20.67 3°0.28 74.5 14.4 68 12
2003-09-18 07:04:46 51°20.68 3°0.3 74.2 14.3 68 12
2003-09-18 07:04:52 51°20.69 3°0.34 73.8 14.4 67 11.9
2003-09-18 07:04:56 51°20.69 3°0.36 73.4 14.3 66 11.9
2003-09-18 07:05:02 51°20.7 3°0.4 73.1 14.3 67 11.9
2003-09-18 07:05:06 51°20.71 3°0.42 73.1 14.3 67 11.9
2003-09-18 07:05:12 51°20.72 3°0.46 73.2 14.4 67 11.9
2003-09-18 07:05:16 51°20.72 3°0.48 72.9 14.4 66 11.9
2003-09-18 07:05:22 51°20.73 3°0.51 73.2 14.2 68 11.9
2003-09-18 07:05:26 51°20.74 3°0.54 73.7 14.2 67 11.9
2003-09-18 07:05:32 51°20.75 3°0.57 74.4 14.3 69 12
2003-09-18 07:05:36 51°20.75 3°0.6 74.7 14.3 68 12
2003-09-18 07:05:42 51°20.76 3°0.63 74.7 14.3 69 11.9
2003-09-18 07:05:46 51°20.77 3°0.65 74.9 14.2 68 11.9
2003-09-18 07:05:52 51°20.78 3°0.69 74.8 14.2 69 11.9
2003-09-18 07:05:56 51°20.78 3°0.71 74.6 14.3 68 11.9
2003-09-18 07:06:02 51°20.79 3°0.75 74.5 14.2 68 11.9
2003-09-18 07:06:06 51°20.8 3°0.77 74.5 14.2 68 11.9
2003-09-18 07:06:12 51°20.81 3°0.81 74 14.3 67 11.9
2003-09-18 07:06:16 51°20.81 3°0.83 73.5 14.3 67 11.9
2003-09-18 07:06:22 51°20.82 3°0.86 73.4 14.3 67 11.8
2003-09-18 07:06:26 51°20.83 3°0.89 73.5 14.3 67 11.9
2003-09-18 07:06:32 51°20.84 3°0.92 73.4 14.4 67 11.9
2003-09-18 07:06:36 51°20.84 3°0.95 73.6 14.4 67 11.9
2003-09-18 07:06:42 51°20.85 3°0.98 74.1 14.4 68 11.9
2003-09-18 07:06:46 51°20.86 3°1.01 75.1 14.4 69 11.9
2003-09-18 07:06:52 51°20.87 3°1.04 75.9 14.5 69 11.8
2003-09-18 07:06:56 51°20.87 3°1.07 75.7 14.4 69 11.9
2003-09-18 07:07:02 51°20.88 3°1.1 75.8 14.3 69 11.9
2003-09-18 07:07:06 51°20.89 3°1.13 75.9 14.3 69 11.8
2003-09-18 07:07:12 51°20.9 3°1.16 75.8 14.4 69 11.8
2003-09-18 07:07:16 51°20.9 3°1.18 75.1 14.4 68 11.8
2003-09-18 07:07:22 51°20.91 3°1.22 75 14.3 69 11.8
2003-09-18 07:07:26 51°20.92 3°1.24 75.2 14.4 69 11.8
2003-09-18 07:07:32 51°20.93 3°1.28 75.3 14.5 68 11.9
2003-09-18 07:07:36 51°20.93 3°1.3 75 14.4 69 11.8
2003-09-18 07:07:42 51°20.94 3°1.34 75.1 14.4 68 11.8
2003-09-18 07:07:46 51°20.95 3°1.36 75.1 14.5 69 11.8
2003-09-18 07:07:52 51°20.95 3°1.4 75.4 14.4 69 11.8
2003-09-18 07:07:56 51°20.96 3°1.42 75.6 14.4 69 11.8
2003-09-18 07:08:02 51°20.97 3°1.46 75.7 14.4 70 11.8
2003-09-18 07:08:06 51°20.97 3°1.48 76.2 14.4 70 11.8
2003-09-18 07:08:12 51°20.98 3°1.52 76.5 14.5 70 11.8
2003-09-18 07:08:16 51°20.99 3°1.54 76.4 14.4 70 11.7
2003-09-18 07:08:22 51°21 3°1.58 76.4 14.4 69 11.7
2003-09-18 07:08:26 51°21 3°1.6 76 14.4 70 11.8
2003-09-18 07:08:32 51°21.01 3°1.64 75.7 14.3 69 11.8
2003-09-18 07:08:36 51°21.01 3°1.66 75.4 14.3 69 11.7
2003-09-18 07:08:42 51°21.02 3°1.7 74.9 14.4 68 11.7
2003-09-18 07:08:46 51°21.03 3°1.72 74.2 14.4 68 11.7
2003-09-18 07:08:52 51°21.04 3°1.76 74.2 14.3 68 11.7
2003-09-18 07:08:56 51°21.04 3°1.78 74.7 14.3 69 11.8
2003-09-18 07:09:02 51°21.05 3°1.81 75.3 14.4 69 11.8
2003-09-18 07:09:06 51°21.06 3°1.84 75.5 14.4 69 11.7
2003-09-18 07:09:12 51°21.07 3°1.87 75.5 14.4 69 11.8
2003-09-18 07:09:16 51°21.07 3°1.9 75.3 14.3 69 11.8
2003-09-18 07:09:22 51°21.08 3°1.93 75.8 14.3 70 11.8
2003-09-18 07:09:26 51°21.09 3°1.96 76 14.4 70 11.7
2003-09-18 07:09:32 51°21.1 3°1.99 75.6 14.5 70 11.8
2003-09-18 07:09:36 51°21.1 3°2.02 75.4 14.3 69 11.8
2003-09-18 07:09:42 51°21.11 3°2.05 75.6 14.2 70 11.7
2003-09-18 07:09:46 51°21.11 3°2.08 76.3 14.4 70 11.7
2003-09-18 07:09:52 51°21.12 3°2.11 75.5 14.5 69 11.7
2003-09-18 07:09:56 51°21.13 3°2.14 74.7 14.4 69 11.8
2003-09-18 07:10:02 51°21.14 3°2.17 74.9 14.2 70 11.8
2003-09-18 07:10:06 51°21.14 3°2.2 75.5 14.3 69 11.8
2003-09-18 07:10:12 51°21.15 3°2.23 75.8 14.5 70 11.7
2003-09-18 07:10:16 51°21.16 3°2.26 75.6 14.5 69 11.8
2003-09-18 07:10:22 51°21.17 3°2.29 75.1 14.3 69 11.8
2003-09-18 07:10:26 51°21.17 3°2.32 74.9 14.3 69 11.8
2003-09-18 07:10:32 51°21.18 3°2.35 74.9 14.3 69 11.8
2003-09-18 07:10:36 51°21.19 3°2.37 75.2 14.5 69 11.8
2003-09-18 07:10:42 51°21.19 3°2.41 75.2 14.4 69 11.9
2003-09-18 07:10:46 51°21.2 3°2.43 75.1 14.3 69 11.8
2003-09-18 07:10:52 51°21.21 3°2.47 75.3 14.3 69 11.9
2003-09-18 07:10:56 51°21.21 3°2.49 75.4 14.3 69 11.9
2003-09-18 07:11:02 51°21.22 3°2.53 74.9 14.4 69 11.9
2003-09-18 07:11:06 51°21.23 3°2.55 74.2 14.3 68 11.9
2003-09-18 07:11:12 51°21.24 3°2.59 74 14.3 68 11.9
2003-09-18 07:11:16 51°21.24 3°2.61 73.9 14.3 68 11.9
2003-09-18 07:11:22 51°21.25 3°2.65 74.1 14.3 69 12
2003-09-18 07:11:26 51°21.26 3°2.67 74.8 14.3 69 11.9
2003-09-18 07:11:32 51°21.27 3°2.71 75 14.4 69 12
2003-09-18 07:11:36 51°21.27 3°2.73 75.6 14.3 70 11.9
2003-09-18 07:11:42 51°21.28 3°2.76 75.9 14.3 70 12
2003-09-18 07:11:46 51°21.29 3°2.79 76.1 14.2 69 12
2003-09-18 07:11:52 51°21.29 3°2.82 76.1 14.3 70 12
2003-09-18 07:11:56 51°21.3 3°2.85 75.4 14.3 69 12.1
2003-09-18 07:12:02 51°21.31 3°2.88 74.8 14.3 69 12.1
2003-09-18 07:12:06 51°21.31 3°2.91 74.7 14.3 69 12
2003-09-18 07:12:12 51°21.32 3°2.94 74.7 14.3 69 12.1
2003-09-18 07:12:16 51°21.33 3°2.97 74.5 14.3 68 12
2003-09-18 07:12:22 51°21.34 3°3 74.5 14.3 69 12.1
2003-09-18 07:12:26 51°21.34 3°3.02 74.2 14.2 68 12.2
2003-09-18 07:12:32 51°21.35 3°3.06 74.7 14.2 69 12.1
2003-09-18 07:12:36 51°21.36 3°3.08 75.2 14.3 69 12.1
2003-09-18 07:12:42 51°21.37 3°3.12 75 14.3 69 12.1
2003-09-18 07:12:46 51°21.37 3°3.14 75 14.2 69 12.2
2003-09-18 07:12:52 51°21.38 3°3.18 75 14.2 69 12.2
2003-09-18 07:12:56 51°21.39 3°3.2 75.6 14.2 70 12.2
2003-09-18 07:13:02 51°21.39 3°3.24 75.8 14.3 69 12.2
2003-09-18 07:13:06 51°21.4 3°3.26 75.8 14.3 71 12.2
2003-09-18 07:13:12 51°21.41 3°3.3 76.2 14.2 70 12.2
2003-09-18 07:13:16 51°21.41 3°3.32 76.5 14.2 70 12.2
2003-09-18 07:13:22 51°21.42 3°3.36 76.6 14.2 70 12.3
2003-09-18 07:13:26 51°21.43 3°3.38 76.1 14.3 70 12.2
2003-09-18 07:13:32 51°21.43 3°3.41 75 14.2 69 12.2
2003-09-18 07:13:36 51°21.44 3°3.44 74.6 14.2 69 12.3
2003-09-18 07:13:42 51°21.45 3°3.47 75.1 14.2 69 12.3
2003-09-18 07:13:46 51°21.45 3°3.5 75.5 14.2 70 12.3
2003-09-18 07:13:52 51°21.46 3°3.53 76.2 14.2 71 12.3
2003-09-18 07:13:56 51°21.47 3°3.56 76.3 14.2 71 12.4
2003-09-18 07:14:02 51°21.47 3°3.59 76.8 14.2 71 12.3
2003-09-18 07:14:06 51°21.48 3°3.62 76.3 14.2 70 12.4
2003-09-18 07:14:12 51°21.49 3°3.65 75.6 14.2 70 12.3
2003-09-18 07:14:16 51°21.49 3°3.68 75.4 14.3 69 12.3
2003-09-18 07:14:22 51°21.5 3°3.71 74.3 14.3 69 12.3
2003-09-18 07:14:26 51°21.51 3°3.74 74.1 14.2 69 12.3
2003-09-18 07:14:32 51°21.52 3°3.77 74.5 14.2 69 12.3
2003-09-18 07:14:36 51°21.52 3°3.79 74.9 14.2 69 12.3
2003-09-18 07:14:42 51°21.53 3°3.83 75.4 14.3 70 12.3
2003-09-18 07:14:46 51°21.54 3°3.85 75.6 14.2 70 12.3
2003-09-18 07:14:52 51°21.54 3°3.89 75.9 14.2 71 12.4
2003-09-18 07:14:56 51°21.55 3°3.91 76 14.2 70 12.4
2003-09-18 07:15:02 51°21.56 3°3.95 76 14.1 71 12.4
2003-09-18 07:15:06 51°21.56 3°3.97 75.9 14.2 70 12.3
2003-09-18 07:15:12 51°21.57 3°4.01 75.4 14.2 70 12.4
2003-09-18 07:15:16 51°21.58 3°4.03 74.9 14.2 69 12.4
2003-09-18 07:15:22 51°21.59 3°4.07 74.5 14.1 69 12.4
2003-09-18 07:15:26 51°21.59 3°4.09 74.5 14.1 69 12.3
2003-09-18 07:15:32 51°21.6 3°4.12 74.3 14.2 69 12.4
2003-09-18 07:15:36 51°21.61 3°4.15 74.2 14.2 69 12.4
2003-09-18 07:15:42 51°21.61 3°4.18 74.3 14.2 69 12.3
2003-09-18 07:15:46 51°21.62 3°4.21 74.4 14.2 69 12.3
2003-09-18 07:15:52 51°21.63 3°4.24 74.4 14.2 68 12.4
2003-09-18 07:15:56 51°21.63 3°4.27 74.3 14.2 69 12.4
2003-09-18 07:16:02 51°21.64 3°4.3 74.6 14.2 69 12.5
2003-09-18 07:16:06 51°21.65 3°4.32 74.7 14.2 69 12.4
2003-09-18 07:16:12 51°21.66 3°4.36 74.7 14.2 69 12.4
2003-09-18 07:16:16 51°21.66 3°4.38 74.7 14.2 69 12.5
2003-09-18 07:16:22 51°21.67 3°4.42 74.9 14.1 70 12.4
2003-09-18 07:16:26 51°21.68 3°4.44 75.2 14.1 69 12.5
2003-09-18 07:16:32 51°21.68 3°4.48 75.4 14.1 70 12.5
2003-09-18 07:16:36 51°21.69 3°4.5 75.5 14.1 70 12.5
2003-09-18 07:16:42 51°21.7 3°4.53 76.1 14.1 70 12.5
2003-09-18 07:16:46 51°21.7 3°4.56 75.8 14.1 70 12.5
2003-09-18 07:16:52 51°21.71 3°4.59 75.8 14.1 70 12.5
2003-09-18 07:16:56 51°21.72 3°4.62 75.3 14.1 69 12.4
2003-09-18 07:17:02 51°21.72 3°4.65 75 14.1 69 12.4
2003-09-18 07:17:06 51°21.73 3°4.68 75 14.1 69 12.5
2003-09-18 07:17:12 51°21.74 3°4.71 74.8 14.2 69 12.5
2003-09-18 07:17:16 51°21.74 3°4.73 74.2 14.2 69 12.5
2003-09-18 07:17:22 51°21.75 3°4.77 74.6 14.1 69 12.6
2003-09-18 07:17:26 51°21.76 3°4.79 75.3 14.1 70 12.5
2003-09-18 07:17:32 51°21.77 3°4.83 76.2 14.1 71 12.6
2003-09-18 07:17:36 51°21.77 3°4.85 76.5 14.2 70 12.5
2003-09-18 07:17:42 51°21.78 3°4.89 76 14.1 71 12.6
2003-09-18 07:17:46 51°21.78 3°4.91 76.1 14 71 12.6
2003-09-18 07:17:52 51°21.79 3°4.95 75.9 14.2 70 12.5
2003-09-18 07:17:56 51°21.8 3°4.97 75.5 14 70 12.6
2003-09-18 07:18:02 51°21.81 3°5 75.8 14 71 12.6
2003-09-18 07:18:06 51°21.81 3°5.03 75.5 14 69 12.7
2003-09-18 07:18:12 51°21.82 3°5.06 75.3 14 69 12.7
2003-09-18 07:18:16 51°21.82 3°5.09 75.2 14.1 69 11.9
2003-09-18 07:18:22 51°21.83 3°5.12 74 14.2 68 12.7
2003-09-18 07:18:26 51°21.84 3°5.14 74.2 14 69 12.7
2003-09-18 07:18:32 51°21.85 3°5.18 75.5 14 70 12.8
2003-09-18 07:18:36 51°21.85 3°5.2 75.5 14.1 70 12.8
2003-09-18 07:18:42 51°21.86 3°5.24 75.6 14 70 12.7
2003-09-18 07:18:46 51°21.87 3°5.26 75.9 14.1 70 12.8
2003-09-18 07:18:52 51°21.87 3°5.3 75.3 14 69 12.8
2003-09-18 07:18:56 51°21.88 3°5.32 75.2 13.9 70 12.7
2003-09-18 07:19:02 51°21.89 3°5.35 75.5 14 70 12.7
2003-09-18 07:19:06 51°21.89 3°5.38 75.2 14.1 69 12.8
2003-09-18 07:19:12 51°21.9 3°5.41 75.1 14 70 12.8
2003-09-18 07:19:16 51°21.91 3°5.44 75.2 14 69 12.8
2003-09-18 07:19:22 51°21.91 3°5.47 74.9 14 69 12.8
2003-09-18 07:19:26 51°21.92 3°5.49 74.9 14 69 12.9
2003-09-18 07:19:32 51°21.93 3°5.53 74.8 14 69 12.7
2003-09-18 07:19:36 51°21.93 3°5.55 74.6 14 69 12.8
2003-09-18 07:19:42 51°21.94 3°5.59 74.6 14 69 12.8
2003-09-18 07:19:46 51°21.95 3°5.61 74 14 69 12.8
2003-09-18 07:19:52 51°21.96 3°5.65 74.7 14 70 12.9
2003-09-18 07:19:56 51°21.96 3°5.67 75 14 69 12.9
2003-09-18 07:20:02 51°21.97 3°5.7 75.7 13.8 72 12.9
2003-09-18 07:20:06 51°21.97 3°5.73 76.4 13.9 70 12.9
2003-09-18 07:20:12 51°21.98 3°5.76 75.2 14 69 13
2003-09-18 07:20:16 51°21.99 3°5.78 75 14 69 13
2003-09-18 07:20:22 51°21.99 3°5.82 75.4 13.9 70 13
2003-09-18 07:20:26 51°22 3°5.84 75.4 13.9 70 12.9
2003-09-18 07:20:32 51°22.01 3°5.88 76 13.9 71 12.9
2003-09-18 07:20:36 51°22.01 3°5.9 76.2 14 70 12.9
2003-09-18 07:20:42 51°22.02 3°5.94 75.9 13.9 71 13.1
2003-09-18 07:20:46 51°22.03 3°5.96 76 13.9 70 12.9
2003-09-18 07:20:52 51°22.03 3°5.99 75 13.9 69 13
2003-09-18 07:20:56 51°22.04 3°6.02 75.1 13.9 70 13
2003-09-18 07:21:02 51°22.05 3°6.05 75.3 14 69 13
2003-09-18 07:21:06 51°22.05 3°6.07 75.1 14 70 13.1
2003-09-18 07:21:12 51°22.06 3°6.11 75.8 13.9 70 13.1
2003-09-18 07:21:16 51°22.07 3°6.13 76.2 13.9 71 13
2003-09-18 07:21:22 51°22.07 3°6.17 76.9 13.9 71 13.1
2003-09-18 07:21:26 51°22.08 3°6.19 77.4 13.8 72 13.1
2003-09-18 07:21:32 51°22.08 3°6.23 78.3 13.8 73 13.1
2003-09-18 07:21:36 51°22.09 3°6.25 78.1 13.8 72 13.2
2003-09-18 07:21:42 51°22.1 3°6.29 78.3 13.8 73 13.2
2003-09-18 07:21:46 51°22.1 3°6.31 78.6 14 72 13.1
2003-09-18 07:21:52 51°22.11 3°6.34 77.5 13.9 72 13.2
2003-09-18 07:21:56 51°22.11 3°6.37 77.6 13.7 72 13.2
2003-09-18 07:22:02 51°22.12 3°6.4 78 13.9 72 13.2
2003-09-18 07:22:06 51°22.13 3°6.42 77.4 13.8 71 13.1
2003-09-18 07:22:12 51°22.13 3°6.46 77.5 13.8 72 13.2
2003-09-18 07:22:16 51°22.14 3°6.48 77.6 13.8 71 13.1
2003-09-18 07:22:22 51°22.14 3°6.52 76.9 13.8 71 13.2
2003-09-18 07:22:26 51°22.15 3°6.54 76.7 13.7 72 13.1
2003-09-18 07:22:32 51°22.16 3°6.58 77.8 13.8 73 13.2
2003-09-18 07:22:36 51°22.16 3°6.6 78.2 13.8 73 13.4
2003-09-18 07:22:42 51°22.17 3°6.64 78.6 13.8 73 13.3
2003-09-18 07:22:46 51°22.17 3°6.66 78.1 13.8 72 13.3
2003-09-18 07:22:52 51°22.18 3°6.69 77.9 13.8 72 13.4
2003-09-18 07:22:56 51°22.18 3°6.72 77.7 13.8 72 13.4
2003-09-18 07:23:02 51°22.19 3°6.75 77.7 13.8 72 13.3
2003-09-18 07:23:06 51°22.2 3°6.78 77.6 13.9 72 13.3
2003-09-18 07:23:12 51°22.2 3°6.81 77.5 13.8 72 13.3
2003-09-18 07:23:16 51°22.21 3°6.83 77.6 13.8 72 13.3
2003-09-18 07:23:22 51°22.21 3°6.87 77.2 13.8 71 13.3
2003-09-18 07:23:26 51°22.22 3°6.89 76.9 13.8 71 13.2
2003-09-18 07:23:32 51°22.23 3°6.93 77.3 13.8 72 13.2
2003-09-18 07:23:36 51°22.23 3°6.95 77.4 13.8 72 13.3
2003-09-18 07:23:42 51°22.24 3°6.98 77.8 13.7 73 13.3
2003-09-18 07:23:46 51°22.24 3°7.01 78 13.8 72 13.3
2003-09-18 07:23:52 51°22.25 3°7.04 77.6 13.8 72 13.4
2003-09-18 07:23:56 51°22.26 3°7.07 77.5 13.8 72 13.4
2003-09-18 07:24:02 51°22.26 3°7.1 77.7 13.8 72 13.4
2003-09-18 07:24:06 51°22.27 3°7.12 77.6 13.8 72 13.4
2003-09-18 07:24:12 51°22.27 3°7.16 77.7 13.8 72 13.4
2003-09-18 07:24:16 51°22.28 3°7.18 77.4 13.8 72 13.3
2003-09-18 07:24:22 51°22.29 3°7.22 76.9 13.8 71 13.4
2003-09-18 07:24:26 51°22.29 3°7.24 76.7 13.8 72 13.4
2003-09-18 07:24:32 51°22.3 3°7.28 76.9 13.8 72 13.4
2003-09-18 07:24:36 51°22.3 3°7.3 77.5 13.8 72 13.5
2003-09-18 07:24:42 51°22.31 3°7.33 77.8 13.8 73 13.5
2003-09-18 07:24:46 51°22.31 3°7.36 78.2 13.8 73 13.3
2003-09-18 07:24:52 51°22.32 3°7.39 77.3 13.8 71 13.4
2003-09-18 07:24:56 51°22.33 3°7.41 76.9 13.8 72 13.5
2003-09-18 07:25:02 51°22.33 3°7.45 76.9 13.8 72 13.4
2003-09-18 07:25:06 51°22.34 3°7.47 77 13.8 71 13.5
2003-09-18 07:25:12 51°22.35 3°7.51 77 13.8 72 13.5
2003-09-18 07:25:16 51°22.35 3°7.53 77.5 13.8 72 13.4
2003-09-18 07:25:22 51°22.36 3°7.57 77.6 13.9 72 13.5
2003-09-18 07:25:26 51°22.36 3°7.59 77.6 13.8 72 13.5
2003-09-18 07:25:32 51°22.37 3°7.62 77.7 13.8 73 13.4
2003-09-18 07:25:36 51°22.37 3°7.65 78 13.8 72 13.5
2003-09-18 07:25:42 51°22.38 3°7.68 77.6 13.8 73 13.5
2003-09-18 07:25:46 51°22.39 3°7.71 77.7 13.7 73 13.6
2003-09-18 07:25:52 51°22.39 3°7.74 78 13.8 73 13.5
2003-09-18 07:25:56 51°22.4 3°7.76 77.6 13.9 72 13.6
2003-09-18 07:26:02 51°22.4 3°7.8 77.6 13.8 72 13.6
2003-09-18 07:26:06 51°22.41 3°7.82 77.5 13.8 72 13.5
2003-09-18 07:26:12 51°22.42 3°7.86 77.1 13.8 71 13.7
2003-09-18 07:26:16 51°22.42 3°7.88 76.6 13.8 71 13.6
2003-09-18 07:26:22 51°22.43 3°7.92 76.3 13.8 71 13.7
2003-09-18 07:26:26 51°22.43 3°7.94 76.1 13.9 71 13.8
2003-09-18 07:26:32 51°22.44 3°7.97 76 13.9 71 13.7
2003-09-18 07:26:36 51°22.45 3°8 76.2 13.9 71 13.7
2003-09-18 07:26:42 51°22.45 3°8.03 76.4 13.9 71 13.7
2003-09-18 07:26:46 51°22.46 3°8.06 76.9 13.8 72 13.7
2003-09-18 07:26:52 51°22.47 3°8.09 76.9 13.9 71 13.7
2003-09-18 07:26:56 51°22.47 3°8.11 77.1 13.9 72 13.7
2003-09-18 07:27:02 51°22.48 3°8.15 76.9 13.9 71 13.8
2003-09-18 07:27:06 51°22.48 3°8.17 76.9 13.9 72 13.7
2003-09-18 07:27:12 51°22.49 3°8.21 77.5 13.9 72 13.8
2003-09-18 07:27:16 51°22.5 3°8.23 77.3 13.9 72 13.8
2003-09-18 07:27:22 51°22.5 3°8.27 77.3 13.8 72 13.8
2003-09-18 07:27:26 51°22.51 3°8.29 77.5 13.8 72 13.7
2003-09-18 07:27:32 51°22.51 3°8.32 77.8 13.3 73 13.8
2003-09-18 07:27:36 51°22.52 3°8.34 78.2 12.9 73 13.8
2003-09-18 07:27:42 51°22.52 3°8.38 79 12.5 75 13.8
2003-09-18 07:27:46 51°22.53 3°8.4 79.9 12.2 75 13.8
2003-09-18 07:27:52 51°22.53 3°8.43 79.7 11.8 74 13.9
2003-09-18 07:27:56 51°22.54 3°8.45 79.6 11.6 73 13.8
2003-09-18 07:28:02 51°22.54 3°8.48 78.6 11.5 72 13.9
2003-09-18 07:28:06 51°22.55 3°8.5 78.3 11.4 73 13.9
2003-09-18 07:28:12 51°22.55 3°8.52 77.6 11.3 72 13.9
2003-09-18 07:28:16 51°22.56 3°8.54 77.3 11.2 72 14
2003-09-18 07:28:22 51°22.56 3°8.57 77.1 11.2 72 13.9
2003-09-18 07:28:26 51°22.56 3°8.59 77.3 11.1 72 13.9
2003-09-18 07:28:32 51°22.57 3°8.62 77.5 11.1 72 13.9
2003-09-18 07:28:36 51°22.57 3°8.64 77.9 11 72 13.9
2003-09-18 07:28:42 51°22.58 3°8.66 78.1 11 72 13.9
2003-09-18 07:28:46 51°22.58 3°8.68 78.2 10.9 72 13.8
2003-09-18 07:28:52 51°22.59 3°8.71 78.1 10.9 72 13.9
2003-09-18 07:28:56 51°22.59 3°8.73 77.7 10.9 72 14
2003-09-18 07:29:02 51°22.6 3°8.76 77.6 10.9 72 14
2003-09-18 07:29:06 51°22.6 3°8.77 77.6 10.9 73 13.9
2003-09-18 07:29:12 51°22.61 3°8.8 77.8 10.9 72 13.9
2003-09-18 07:29:16 51°22.61 3°8.82 77.8 10.8 73 13.9
2003-09-18 07:29:22 51°22.62 3°8.85 78 10.7 73 14
2003-09-18 07:29:26 51°22.62 3°8.86 78.2 10.3 73 13.9
2003-09-18 07:29:32 51°22.62 3°8.89 78.2 9.6 73 14.1
2003-09-18 07:29:36 51°22.63 3°8.9 78.7 8.9 74 14.1
2003-09-18 07:29:42 51°22.63 3°8.93 79.5 8.5 74 14.1
2003-09-18 07:29:46 51°22.63 3°8.94 80 8.1 74 14.1
2003-09-18 07:29:52 51°22.64 3°8.96 80.5 7.6 74 13.9
2003-09-18 07:29:56 51°22.64 3°8.97 80.6 7.3 74 14
2003-09-18 07:30:02 51°22.64 3°8.99 80.5 6.9 73 14.1
2003-09-18 07:30:06 51°22.64 3°9 80 6.6 74 14.1
2003-09-18 07:30:12 51°22.65 3°9.01 79.6 6.3 71 14.2
2003-09-18 07:30:16 51°22.65 3°9.02 78.9 6 72 14
2003-09-18 07:30:22 51°22.65 3°9.04 77.9 5.8 69 14.1
2003-09-18 07:30:26 51°22.65 3°9.05 76.9 5.7 70 14.2
2003-09-18 07:30:32 51°22.66 3°9.06 75.6 5.4 67 14.2
2003-09-18 07:30:36 51°22.66 3°9.07 74.4 5.3 67 14.3
2003-09-18 07:30:42 51°22.66 3°9.08 72.8 5.2 64 14.2
2003-09-18 07:30:46 51°22.67 3°9.09 71.2 5.1 65 14.2
2003-09-18 07:30:52 51°22.67 3°9.1 69.5 5 61 14.3
2003-09-18 07:30:56 51°22.67 3°9.11 68.2 4.8 62 14.2
2003-09-18 07:31:02 51°22.68 3°9.12 67.2 4.7 59 14.3
2003-09-18 07:31:06 51°22.68 3°9.13 66.3 4.6 60 14.1
2003-09-18 07:31:12 51°22.68 3°9.14 65.5 4.6 57 14.3
2003-09-18 07:31:16 51°22.69 3°9.14 65 4.5 58 14.4
2003-09-18 07:31:22 51°22.69 3°9.15 64.6 4.4 56 14.3
2003-09-18 07:31:26 51°22.69 3°9.16 64.4 4.4 57 14.3
2003-09-18 07:31:32 51°22.7 3°9.17 64.1 4.3 57 14.3
2003-09-18 07:31:36 51°22.7 3°9.18 64 4.2 57 14.4
2003-09-18 07:31:42 51°22.7 3°9.18 64 4.2 57 14.3
2003-09-18 07:31:46 51°22.71 3°9.19 64.8 4.1 56 14.3
2003-09-18 07:31:52 51°22.71 3°9.2 67.3 4 60 14.4
2003-09-18 07:31:56 51°22.71 3°9.21 70.6 3.8 62 14.2
2003-09-18 07:32:02 51°22.71 3°9.21 74.1 3.7 65 14.4
2003-09-18 07:32:06 51°22.71 3°9.22 77.7 3.5 69 14.3
2003-09-18 07:32:12 51°22.72 3°9.23 81.3 3.4 72 14.2
2003-09-18 07:32:16 51°22.72 3°9.24 84.9 3.3 75 14.2
2003-09-18 07:32:22 51°22.72 3°9.24 88.5 3.2 77 14.2
2003-09-18 07:32:26 51°22.72 3°9.25 91.8 3.1 79 14.3
2003-09-18 07:32:32 51°22.72 3°9.26 94.4 3 82 14.2
2003-09-18 07:32:36 51°22.72 3°9.26 95.8 3 83 14.4
2003-09-18 07:32:42 51°22.72 3°9.27 96.4 2.9 83 14.3
2003-09-18 07:32:46 51°22.72 3°9.27 96.7 2.9 83 14.3
2003-09-18 07:32:52 51°22.72 3°9.28 96.7 2.9 84 14.2
2003-09-18 07:32:56 51°22.72 3°9.29 96.7 2.9 83 14.2
2003-09-18 07:33:02 51°22.72 3°9.3 96.4 2.9 83 14.2
2003-09-18 07:33:06 51°22.72 3°9.3 96.1 3 84 14.3
2003-09-18 07:33:12 51°22.72 3°9.31 95.7 3.3 82 14.4
2003-09-18 07:33:16 51°22.72 3°9.32 94.8 3.4 84 14.4
2003-09-18 07:33:22 51°22.73 3°9.33 93.6 3.7 82 14.5
2003-09-18 07:33:26 51°22.73 3°9.33 92.1 3.9 82 14.4
2003-09-18 07:33:32 51°22.73 3°9.34 90.6 4.1 80 14.4
2003-09-18 07:33:36 51°22.73 3°9.35 88.9 4.2 80 14.4
2003-09-18 07:33:42 51°22.73 3°9.36 87.8 4.4 79 14.3
2003-09-18 07:33:46 51°22.73 3°9.37 87.1 4.5 79 14.4
2003-09-18 07:33:52 51°22.73 3°9.38 86.7 4.7 79 14.4
2003-09-18 07:33:56 51°22.73 3°9.39 87.6 4.8 80 14.4
2003-09-18 07:34:02 51°22.73 3°9.4 92.4 4.9 89 14.3
2003-09-18 07:34:06 51°22.73 3°9.41 98.5 5.2 92 14.3
2003-09-18 07:34:12 51°22.73 3°9.43 107.1 4.9 105 14.2
2003-09-18 07:34:16 51°22.73 3°9.43 113.6 4.8 108 14.3
2003-09-18 07:34:22 51°22.73 3°9.44 121.7 4.4 114 14.2
2003-09-18 07:34:26 51°22.72 3°9.45 126.2 4.1 119 14.2
2003-09-18 07:34:32 51°22.72 3°9.46 130 3.7 120 14.3
2003-09-18 07:34:36 51°22.72 3°9.46 132 3.3 122 14.3
2003-09-18 07:34:41 51°22.72 3°9.47 134.6 2.7 122 14.3
2003-09-18 07:34:46 51°22.72 3°9.47 138.3 2.2 124 14.3
2003-09-18 07:34:52 51°22.71 3°9.48 142.5 1.4 118 14.3
2003-09-18 07:34:56 51°22.71 3°9.48 147 0.9 109 14.3
2003-09-18 07:35:02 51°22.71 3°9.48 151.1 0.6 66 14.4
2003-09-18 07:35:06 51°22.72 3°9.48 154.4 0.5 61 14.3
2003-09-18 07:35:11 51°22.72 3°9.48 156 0.6 62 14.3
2003-09-18 07:35:15 51°22.72 3°9.48 156.7 0.6 59 14.2
2003-09-18 07:35:21 51°22.72 3°9.48 156.7 0.6 59 14.2
2003-09-18 07:35:25 51°22.72 3°9.48 156.6 0.6 60 14.2
2003-09-18 07:35:31 51°22.72 3°9.49 156.2 0.6 60 14.2
2003-09-18 07:35:35 51°22.72 3°9.49 155.7 0.6 62 14.2
2003-09-18 07:35:41 51°22.72 3°9.49 154.7 0.6 62 14.2
2003-09-18 07:35:45 51°22.72 3°9.49 153.7 0.5 61 14.2
2003-09-18 07:35:51 51°22.72 3°9.49 152.4 0.5 61 14.2
2003-09-18 07:35:55 51°22.72 3°9.49 151.6 0.5 63 14.3
2003-09-18 07:36:01 51°22.72 3°9.49 150.5 0.6 64 14.4
2003-09-18 07:36:05 51°22.72 3°9.49 149.5 0.6 66 14.3
2003-09-18 07:36:12 51°22.72 3°9.5 148.8 0.6 69 14.3
2003-09-18 07:36:15 51°22.72 3°9.5 148.1 0.6 76 14.4
2003-09-18 07:36:21 51°22.72 3°9.5 148 0.7 85 14.4
2003-09-18 07:36:25 51°22.72 3°9.5 148.6 0.6 88 14.3
2003-09-18 07:36:31 51°22.72 3°9.5 149.4 0.7 84 14.3
2003-09-18 07:36:35 51°22.72 3°9.5 150.1 0.6 87 14.3
2003-09-18 07:36:41 51°22.72 3°9.5 150.9 0.7 83 14.3
2003-09-18 07:36:45 51°22.72 3°9.5 151.8 0.6 89 14.4
2003-09-18 07:36:51 51°22.72 3°9.51 152.6 0.7 83 14.4
2003-09-18 07:36:55 51°22.72 3°9.51 153.2 0.6 88 14.5
2003-09-18 07:37:01 51°22.72 3°9.51 153.6 0.7 84 14.4
2003-09-18 07:37:05 51°22.72 3°9.51 153.9 0.6 88 14.4
2003-09-18 07:37:11 51°22.72 3°9.51 154.2 0.6 84 14.4
2003-09-18 07:37:15 51°22.72 3°9.51 154.3 0.6 88 14.4
2003-09-18 07:37:21 51°22.72 3°9.52 154.5 0.6 86 14.4
2003-09-18 07:37:25 51°22.72 3°9.52 154.6 0.6 87 14.4
2003-09-18 07:37:31 51°22.72 3°9.52 154.9 0.6 88 14.4
2003-09-18 07:37:35 51°22.72 3°9.52 155 0.6 90 14.4
2003-09-18 07:37:41 51°22.72 3°9.52 155.1 0.6 86 14.4
2003-09-18 07:37:45 51°22.72 3°9.52 155.3 0.6 87 14.4
2003-09-18 07:37:51 51°22.72 3°9.52 155.4 0.6 85 14.4
2003-09-18 07:37:55 51°22.72 3°9.52 155.5 0.5 88 14.4
2003-09-18 07:38:01 51°22.72 3°9.53 155.6 0.6 85 14.4
2003-09-18 07:38:05 51°22.72 3°9.53 155.6 0.6 85 14.5
2003-09-18 07:38:11 51°22.72 3°9.53 155.6 0.6 85 14.5
2003-09-18 07:38:15 51°22.72 3°9.53 155.5 0.6 85 14.5
2003-09-18 07:38:21 51°22.72 3°9.53 155.3 0.6 82 14.6
2003-09-18 07:38:25 51°22.72 3°9.53 155.1 0.6 82 14.6
2003-09-18 07:38:31 51°22.72 3°9.53 154.8 0.6 85 14.5
2003-09-18 07:38:35 51°22.72 3°9.53 154.6 0.5 89 14.5
2003-09-18 07:38:41 51°22.72 3°9.54 154.5 0.5 92 14.5
2003-09-18 07:38:45 51°22.72 3°9.54 154.7 0.5 95 14.4
2003-09-18 07:38:51 51°22.72 3°9.54 155 0.5 91 14.5
2003-09-18 07:38:55 51°22.72 3°9.54 155.1 0.5 92 14.6
2003-09-18 07:39:01 51°22.72 3°9.54 155.3 0.6 92 14.5
2003-09-18 07:39:05 51°22.72 3°9.54 155.4 0.6 95 14.5
2003-09-18 07:39:11 51°22.72 3°9.54 155.5 0.6 90 14.6
2003-09-18 07:39:15 51°22.72 3°9.54 155.5 0.6 94 14.6
2003-09-18 07:39:21 51°22.72 3°9.55 155.5 0.6 91 14.5
2003-09-18 07:39:25 51°22.72 3°9.55 155.4 0.6 94 14.6
2003-09-18 07:39:31 51°22.72 3°9.55 155.3 0.6 95 14.6
2003-09-18 07:39:33 51°22.72 3°9.55 155.3 0.6 95 14.6
2003-09-18 07:39:41 51°22.72 3°9.55 155.3 0.6 98 14.6
2003-09-18 07:39:45 51°22.72 3°9.55 155.3 0.6 98 14.6
2003-09-18 07:39:51 51°22.72 3°9.55 155.3 0.6 102 14.6
2003-09-18 07:39:55 51°22.72 3°9.56 155.7 0.7 98 14.5
2003-09-18 07:40:01 51°22.72 3°9.56 156 0.6 103 14.5
2003-09-18 07:40:05 51°22.72 3°9.56 156.5 0.6 99 14.6
2003-09-18 07:40:11 51°22.72 3°9.56 157 0.6 105 14.6
2003-09-18 07:40:15 51°22.72 3°9.56 157.5 0.7 99 14.4
2003-09-18 07:40:21 51°22.72 3°9.56 158.1 0.6 105 14.5
2003-09-18 07:40:25 51°22.72 3°9.56 158.6 0.6 100 14.6
2003-09-18 07:40:31 51°22.72 3°9.57 159.2 0.6 106 14.6
2003-09-18 07:40:35 51°22.72 3°9.57 159.6 0.6 102 14.6
2003-09-18 07:40:41 51°22.72 3°9.57 160.3 0.6 103 14.5
2003-09-18 07:40:45 51°22.72 3°9.57 160.8 0.6 105 14.5
2003-09-18 07:40:51 51°22.72 3°9.57 161.1 0.6 108 14.6
2003-09-18 07:40:55 51°22.72 3°9.57 161.7 0.6 106 14.5
2003-09-18 07:41:01 51°22.72 3°9.57 162.3 0.6 108 14.6
2003-09-18 07:41:05 51°22.72 3°9.57 162.8 0.6 106 14.6
2003-09-18 07:41:11 51°22.72 3°9.58 163.3 0.6 108 14.7
2003-09-18 07:41:15 51°22.72 3°9.58 163.6 0.6 108 14.6